createdAt,value
2022-12-03T00:00:37.988Z,17.73
2022-12-03T00:03:04.605Z,20.13
2022-12-03T00:05:31.404Z,20.65
2022-12-03T00:07:58.052Z,19.38
2022-12-03T00:10:24.694Z,21.38
2022-12-03T00:12:51.209Z,19.98
2022-12-03T00:15:17.787Z,21.35
2022-12-03T00:17:44.289Z,21.33
2022-12-03T00:20:18.710Z,16.42
2022-12-03T00:22:45.290Z,20.52
2022-12-03T00:25:11.999Z,21.77
2022-12-03T00:27:38.544Z,20.52
2022-12-03T00:30:06.558Z,20.10
2022-12-03T00:32:33.051Z,21.95
2022-12-03T00:34:59.572Z,14.32
2022-12-03T00:37:26.039Z,23.52
2022-12-03T00:39:52.597Z,19.65
2022-12-03T00:42:19.079Z,25.43
2022-12-03T00:44:45.573Z,20.40
2022-12-03T00:47:12.767Z,20.92
2022-12-03T00:49:39.376Z,20.17
2022-12-03T00:52:05.844Z,21.42
2022-12-03T00:54:32.483Z,23.17
2022-12-03T00:56:59.094Z,18.55
2022-12-03T00:59:25.605Z,25.10
2022-12-03T01:01:52.265Z,24.83
2022-12-03T01:04:18.833Z,20.77
2022-12-03T01:06:45.409Z,22.93
2022-12-03T01:09:11.896Z,23.55
2022-12-03T01:11:38.397Z,20.80
2022-12-03T01:14:07.095Z,19.40
2022-12-03T01:16:34.077Z,23.55
2022-12-03T01:19:00.792Z,24.48
2022-12-03T01:21:27.674Z,25.33
2022-12-03T01:23:54.440Z,21.48
2022-12-03T01:26:20.990Z,23.27
2022-12-03T01:28:47.564Z,25.25
2022-12-03T01:31:32.760Z,25.53
2022-12-03T01:33:59.930Z,26.10
2022-12-03T01:36:26.658Z,28.65
2022-12-03T01:38:53.170Z,22.50
2022-12-03T01:41:22.314Z,25.25
2022-12-03T01:43:49.913Z,19.15
2022-12-03T01:46:21.057Z,22.25
2022-12-03T01:48:49.989Z,21.98
2022-12-03T01:51:16.517Z,22.52
2022-12-03T01:53:44.073Z,20.60
2022-12-03T01:56:14.367Z,23.30
2022-12-03T01:58:41.892Z,21.65
2022-12-03T02:01:17.567Z,16.20
2022-12-03T02:03:45.369Z,21.57
2022-12-03T02:06:17.111Z,23.35
2022-12-03T02:08:44.230Z,18.73
2022-12-03T02:11:20.740Z,19.80
2022-12-03T02:13:51.158Z,16.75
2022-12-03T02:16:17.845Z,18.25
2022-12-03T02:18:44.638Z,22.13
2022-12-03T02:21:22.620Z,22.60
2022-12-03T02:24:31.282Z,19.60
2022-12-03T02:26:57.741Z,18.85
2022-12-03T02:29:24.651Z,22.63
2022-12-03T02:31:51.274Z,20.52
2022-12-03T02:34:44.687Z,21.02
2022-12-03T02:37:17.268Z,16.65
2022-12-03T02:39:49.238Z,17.90
2022-12-03T02:42:34.748Z,19.55
2022-12-03T02:45:15.015Z,18.95
2022-12-03T02:47:45.964Z,19.30
2022-12-03T02:50:17.493Z,19.50
2022-12-03T02:52:46.294Z,20.17
2022-12-03T02:55:15.288Z,15.90
2022-12-03T02:57:45.811Z,17.73
2022-12-03T03:00:13.007Z,20.73
2022-12-03T03:02:40.916Z,17.00
2022-12-03T03:05:10.456Z,16.33
2022-12-03T03:07:37.699Z,13.95
2022-12-03T03:10:06.507Z,19.23
2022-12-03T03:12:38.856Z,16.40
2022-12-03T03:15:07.592Z,16.92
2022-12-03T03:17:35.117Z,16.65
2022-12-03T03:20:03.016Z,18.43
2022-12-03T03:22:33.482Z,12.18
2022-12-03T03:25:00.213Z,12.10
2022-12-03T03:27:28.153Z,13.77
2022-12-03T03:29:56.117Z,15.20
2022-12-03T03:32:22.676Z,15.68
2022-12-03T03:34:49.236Z,15.15
2022-12-03T03:37:15.982Z,12.00
2022-12-03T03:39:42.563Z,10.23
2022-12-03T03:42:09.517Z,12.65
2022-12-03T03:44:36.173Z,14.07
2022-12-03T03:47:02.861Z,14.07
2022-12-03T03:49:29.456Z,12.57
2022-12-03T03:51:55.947Z,14.65
2022-12-03T03:54:23.232Z,11.23
2022-12-03T03:56:49.957Z,12.60
2022-12-03T03:59:16.614Z,15.13
2022-12-03T04:01:45.109Z,13.40
2022-12-03T04:04:20.473Z,12.55
2022-12-03T04:06:48.099Z,12.18
2022-12-03T04:09:14.888Z,14.40
2022-12-03T04:12:00.606Z,14.68
2022-12-03T04:14:27.134Z,11.07
2022-12-03T04:16:53.659Z,14.23
2022-12-03T04:19:20.164Z,13.20
2022-12-03T04:22:05.087Z,13.80
2022-12-03T04:24:31.597Z,14.02
2022-12-03T04:27:16.371Z,13.13
2022-12-03T04:29:42.840Z,15.45
2022-12-03T04:32:27.933Z,14.45
2022-12-03T04:35:12.983Z,13.13
2022-12-03T04:37:39.596Z,13.02
2022-12-03T04:40:26.773Z,12.80
2022-12-03T04:42:53.252Z,12.93
2022-12-03T04:45:19.764Z,14.23
2022-12-03T04:47:46.285Z,12.30
2022-12-03T04:50:12.807Z,11.38
2022-12-03T04:52:39.353Z,13.50
2022-12-03T04:55:06.095Z,13.75
2022-12-03T04:57:32.760Z,14.73
2022-12-03T04:59:59.265Z,10.87
2022-12-03T05:02:25.925Z,12.73
2022-12-03T05:04:52.906Z,16.60
2022-12-03T05:07:19.584Z,13.13
2022-12-03T05:09:46.030Z,13.48
2022-12-03T05:12:12.470Z,12.80
2022-12-03T05:14:39.009Z,13.07
2022-12-03T05:17:05.621Z,12.83
2022-12-03T05:19:50.571Z,12.13
2022-12-03T05:22:17.001Z,14.98
2022-12-03T05:24:43.502Z,11.00
2022-12-03T05:27:10.052Z,16.40
2022-12-03T05:29:36.519Z,14.00
2022-12-03T05:32:03.504Z,11.43
2022-12-03T05:34:30.009Z,11.27
2022-12-03T05:36:56.524Z,11.57
2022-12-03T05:39:23.094Z,13.45
2022-12-03T05:42:07.906Z,14.13
2022-12-03T05:44:34.449Z,12.82
2022-12-03T05:47:00.895Z,11.68
2022-12-03T05:49:27.439Z,13.17
2022-12-03T05:51:58.499Z,19.67
2022-12-03T05:54:25.515Z,15.20
2022-12-03T05:56:52.029Z,13.07
2022-12-03T05:59:18.543Z,14.05
2022-12-03T06:01:45.072Z,12.25
2022-12-03T06:04:11.759Z,13.75
2022-12-03T06:06:38.218Z,14.97
2022-12-03T06:09:04.962Z,14.38
2022-12-03T06:11:34.058Z,15.23
2022-12-03T06:14:01.043Z,12.73
2022-12-03T06:16:27.750Z,13.00
2022-12-03T06:18:54.417Z,14.40
2022-12-03T06:21:20.904Z,12.10
2022-12-03T06:23:47.353Z,12.77
2022-12-03T06:26:14.531Z,14.73
2022-12-03T06:28:46.242Z,14.68
2022-12-03T06:31:13.689Z,12.37
2022-12-03T06:33:40.150Z,11.73
2022-12-03T06:36:07.035Z,13.30
2022-12-03T06:38:33.505Z,16.20
2022-12-03T06:41:00.001Z,11.57
2022-12-03T06:43:26.471Z,13.07
2022-12-03T06:45:52.997Z,15.48
2022-12-03T06:48:19.547Z,15.25
2022-12-03T06:50:46.044Z,10.35
2022-12-03T06:53:12.486Z,11.95
2022-12-03T06:55:38.981Z,15.53
2022-12-03T06:58:05.488Z,12.15
2022-12-03T07:00:32.069Z,12.57
2022-12-03T07:02:58.637Z,15.67
2022-12-03T07:05:25.238Z,13.88
2022-12-03T07:07:55.413Z,14.73
2022-12-03T07:10:22.320Z,13.75
2022-12-03T07:12:48.806Z,12.18
2022-12-03T07:15:15.719Z,12.18
2022-12-03T07:17:42.225Z,14.80
2022-12-03T07:20:09.105Z,10.40
2022-12-03T07:22:35.662Z,13.75
2022-12-03T07:25:02.318Z,12.00
2022-12-03T07:27:28.836Z,12.07
2022-12-03T07:29:55.370Z,7.38
2022-12-03T07:32:21.943Z,12.40
2022-12-03T07:34:48.405Z,11.23
2022-12-03T07:37:18.645Z,15.43
2022-12-03T07:39:47.993Z,15.07
2022-12-03T07:42:14.529Z,13.52
2022-12-03T07:44:41.047Z,11.60
2022-12-03T07:47:07.599Z,9.57
2022-12-03T07:49:34.208Z,11.85
2022-12-03T07:52:00.772Z,12.53
2022-12-03T07:54:27.268Z,13.90
2022-12-03T07:56:59.603Z,11.30
2022-12-03T07:59:28.605Z,14.25
2022-12-03T08:01:55.153Z,15.98
2022-12-03T08:04:21.907Z,13.95
2022-12-03T08:06:48.956Z,14.45
2022-12-03T08:09:16.437Z,9.80
2022-12-03T08:11:45.379Z,13.25
2022-12-03T08:14:14.640Z,13.30
2022-12-03T08:16:42.640Z,13.83
2022-12-03T08:19:11.825Z,16.58
2022-12-03T08:21:39.149Z,12.20
2022-12-03T08:24:21.509Z,15.68
2022-12-03T08:26:49.506Z,11.63
2022-12-03T08:29:18.480Z,15.07
2022-12-03T08:31:51.900Z,13.25
2022-12-03T08:34:19.535Z,13.90
2022-12-03T08:36:47.120Z,18.27
2022-12-03T08:39:33.459Z,41.50
2022-12-03T08:42:28.669Z,16.80
2022-12-03T08:44:55.621Z,13.23
2022-12-03T08:47:24.474Z,16.98
2022-12-03T08:49:54.934Z,16.27
2022-12-03T08:52:23.042Z,13.63
2022-12-03T08:54:55.594Z,14.75
2022-12-03T08:57:29.638Z,17.02
2022-12-03T09:00:09.910Z,17.07
2022-12-03T09:02:36.429Z,13.32
2022-12-03T09:05:24.980Z,15.15
2022-12-03T09:07:51.564Z,17.27
2022-12-03T09:10:18.057Z,18.40
2022-12-03T09:12:44.548Z,20.48
2022-12-03T09:15:11.319Z,16.10
2022-12-03T09:17:37.992Z,15.80
2022-12-03T09:20:05.953Z,11.32
2022-12-03T09:22:32.514Z,22.75
2022-12-03T09:24:59.054Z,15.13
2022-12-03T09:27:25.618Z,19.40
2022-12-03T09:29:52.244Z,17.83
2022-12-03T09:32:19.128Z,20.92
2022-12-03T09:34:46.013Z,25.83
2022-12-03T09:37:12.504Z,20.48
2022-12-03T09:39:39.074Z,18.50
2022-12-03T09:42:05.877Z,16.23
2022-12-03T09:44:34.203Z,49.28
2022-12-03T09:47:02.061Z,22.42
2022-12-03T09:49:31.689Z,18.73
2022-12-03T09:52:00.512Z,17.73
2022-12-03T09:54:28.942Z,17.58
2022-12-03T09:56:56.998Z,15.90
2022-12-03T09:59:33.129Z,19.57
2022-12-03T10:02:01.137Z,18.70
2022-12-03T10:04:28.869Z,20.35
2022-12-03T10:06:57.994Z,22.53
2022-12-03T10:09:27.138Z,17.75
2022-12-03T10:11:55.488Z,19.05
2022-12-03T10:14:22.053Z,23.38
2022-12-03T10:16:48.657Z,9.25
2022-12-03T10:19:29.025Z,15.23
2022-12-03T10:21:55.759Z,16.40
2022-12-03T10:24:37.905Z,23.83
2022-12-03T10:27:21.635Z,16.67
2022-12-03T10:30:02.657Z,23.55
2022-12-03T10:32:44.933Z,20.87
2022-12-03T10:35:14.813Z,20.08
2022-12-03T10:38:03.495Z,25.02
2022-12-03T10:40:38.495Z,19.08
2022-12-03T10:43:25.458Z,22.30
2022-12-03T10:46:16.709Z,20.23
2022-12-03T10:48:43.669Z,19.60
2022-12-03T10:51:14.148Z,18.63
2022-12-03T10:53:41.530Z,23.33
2022-12-03T10:56:13.620Z,18.48
2022-12-03T10:58:41.493Z,23.08
2022-12-03T11:01:25.787Z,25.00
2022-12-03T11:03:53.838Z,16.50
2022-12-03T11:06:22.601Z,22.42
2022-12-03T11:08:57.857Z,21.57
2022-12-03T11:11:27.029Z,26.67
2022-12-03T11:13:58.251Z,25.85
2022-12-03T11:16:39.968Z,24.87
2022-12-03T11:19:12.303Z,24.85
2022-12-03T11:22:03.230Z,17.35
2022-12-03T11:24:30.763Z,35.50
2022-12-03T11:26:57.196Z,24.35
2022-12-03T11:29:48.543Z,23.08
2022-12-03T11:32:42.959Z,14.02
2022-12-03T11:35:27.496Z,17.13
2022-12-03T11:37:54.076Z,22.35
2022-12-03T11:40:20.522Z,15.23
2022-12-03T11:42:48.310Z,23.97
2022-12-03T11:45:42.336Z,19.02
2022-12-03T11:48:14.693Z,21.42
2022-12-03T11:50:52.463Z,15.35
2022-12-03T11:53:27.113Z,21.43
2022-12-03T11:56:08.284Z,22.83
2022-12-03T11:58:42.319Z,22.55
2022-12-03T12:01:09.128Z,23.20
2022-12-03T12:03:42.824Z,25.05
2022-12-03T12:06:10.677Z,15.40
2022-12-03T12:08:54.571Z,25.50
2022-12-03T12:11:26.738Z,25.88
2022-12-03T12:13:56.205Z,23.55
2022-12-03T12:16:42.669Z,25.17
2022-12-03T12:19:31.128Z,27.47
2022-12-03T12:22:19.378Z,26.98
2022-12-03T12:24:51.238Z,26.88
2022-12-03T12:27:47.363Z,23.23
2022-12-03T12:30:17.010Z,24.83
2022-12-03T12:32:51.525Z,27.67
2022-12-03T12:35:22.550Z,20.30
2022-12-03T12:38:02.209Z,21.45
2022-12-03T12:40:31.879Z,24.52
2022-12-03T12:43:03.164Z,26.88
2022-12-03T12:45:35.831Z,28.13
2022-12-03T12:48:14.494Z,26.48
2022-12-03T12:50:46.757Z,23.65
2022-12-03T12:53:25.034Z,21.13
2022-12-03T12:55:57.112Z,25.65
2022-12-03T12:58:24.103Z,24.70
2022-12-03T13:00:56.960Z,24.23
2022-12-03T13:03:28.120Z,23.43
2022-12-03T13:05:56.817Z,24.65
2022-12-03T13:08:30.568Z,27.38
2022-12-03T13:10:59.612Z,27.40
2022-12-03T13:13:30.030Z,26.73
2022-12-03T13:16:11.946Z,26.95
2022-12-03T13:18:50.368Z,29.40
2022-12-03T13:21:38.391Z,27.67
2022-12-03T13:24:29.814Z,18.25
2022-12-03T13:26:57.338Z,29.63
2022-12-03T13:29:25.573Z,26.93
2022-12-03T13:32:19.597Z,28.40
2022-12-03T13:34:46.832Z,21.77
2022-12-03T13:37:18.511Z,25.17
2022-12-03T13:39:48.466Z,27.20
2022-12-03T13:42:38.101Z,24.08
2022-12-03T13:45:13.873Z,23.45
2022-12-03T13:48:15.245Z,27.58
2022-12-03T13:50:46.450Z,24.58
2022-12-03T13:53:25.051Z,23.92
2022-12-03T13:56:20.968Z,19.50
2022-12-03T13:58:47.559Z,28.02
2022-12-03T14:01:14.208Z,29.65
2022-12-03T14:03:40.848Z,26.13
2022-12-03T14:06:07.460Z,26.60
2022-12-03T14:08:41.472Z,22.15
2022-12-03T14:11:08.135Z,23.92
2022-12-03T14:13:34.731Z,22.37
2022-12-03T14:16:01.296Z,24.48
2022-12-03T14:18:27.903Z,22.73
2022-12-03T14:20:54.455Z,19.90
2022-12-03T14:23:36.064Z,27.98
2022-12-03T14:26:02.564Z,23.70
2022-12-03T14:28:29.030Z,24.50
2022-12-03T14:30:55.528Z,27.05
2022-12-03T14:33:22.072Z,25.67
2022-12-03T14:35:48.537Z,24.35
2022-12-03T14:38:15.034Z,26.30
2022-12-03T14:40:41.608Z,28.17
2022-12-03T14:43:08.157Z,28.05
2022-12-03T14:45:34.746Z,17.70
2022-12-03T14:48:01.233Z,22.92
2022-12-03T14:50:27.744Z,24.45
2022-12-03T14:52:54.296Z,24.90
2022-12-03T14:55:20.802Z,30.50
2022-12-03T14:57:47.407Z,26.20
2022-12-03T15:00:14.443Z,23.80
2022-12-03T15:02:41.068Z,27.33
2022-12-03T15:05:08.221Z,22.45
2022-12-03T15:07:35.072Z,23.02
2022-12-03T15:10:01.637Z,32.22
2022-12-03T15:12:28.264Z,27.95
2022-12-03T15:14:54.916Z,28.13
2022-12-03T15:17:29.490Z,23.73
2022-12-03T15:19:57.723Z,26.20
2022-12-03T15:22:24.234Z,26.77
2022-12-03T15:24:50.748Z,26.48
2022-12-03T15:27:17.261Z,28.13
2022-12-03T15:29:43.768Z,31.95
2022-12-03T15:32:10.248Z,26.92
2022-12-03T15:34:36.790Z,24.30
2022-12-03T15:37:03.389Z,24.17
2022-12-03T15:39:29.907Z,25.70
2022-12-03T15:41:56.508Z,41.28
2022-12-03T15:44:23.057Z,24.17
2022-12-03T15:46:49.572Z,25.90
2022-12-03T15:49:16.196Z,24.58
2022-12-03T15:51:42.704Z,32.70
2022-12-03T15:54:09.255Z,30.13
2022-12-03T15:56:37.612Z,27.40
2022-12-03T15:59:04.630Z,25.58
2022-12-03T16:01:31.220Z,26.63
2022-12-03T16:03:57.889Z,26.08
2022-12-03T16:06:24.463Z,23.38
2022-12-03T16:08:50.933Z,24.30
2022-12-03T16:11:17.412Z,31.38
2022-12-03T16:13:43.899Z,20.08
2022-12-03T16:16:10.451Z,23.70
2022-12-03T16:18:37.064Z,23.35
2022-12-03T16:21:03.648Z,20.50
2022-12-03T16:23:30.327Z,23.13
2022-12-03T16:25:56.979Z,24.10
2022-12-03T16:28:23.515Z,21.08
2022-12-03T16:30:50.119Z,28.13
2022-12-03T16:33:16.599Z,30.43
2022-12-03T16:35:43.151Z,25.05
2022-12-03T16:38:09.676Z,38.88
2022-12-03T16:40:36.235Z,21.77
2022-12-03T16:43:04.585Z,23.80
2022-12-03T16:45:51.541Z,21.90
2022-12-03T16:48:18.887Z,24.27
2022-12-03T16:50:45.655Z,26.20
2022-12-03T16:53:12.691Z,23.92
2022-12-03T16:55:39.889Z,24.02
2022-12-03T16:58:06.762Z,23.33
2022-12-03T17:00:33.357Z,22.67
2022-12-03T17:02:59.964Z,25.42
2022-12-03T17:05:26.581Z,23.42
2022-12-03T17:07:53.430Z,27.92
2022-12-03T17:10:20.124Z,25.65
2022-12-03T17:13:10.080Z,24.80
2022-12-03T17:15:33.437Z,29.07
2022-12-03T17:18:00.296Z,26.33
2022-12-03T17:20:26.784Z,26.30
2022-12-03T17:22:53.286Z,25.50
2022-12-03T17:25:19.869Z,30.40
2022-12-03T17:27:46.589Z,27.73
2022-12-03T17:30:15.514Z,26.67
2022-12-03T17:32:42.339Z,25.40
2022-12-03T17:35:10.039Z,26.35
2022-12-03T17:37:36.967Z,27.45
2022-12-03T17:40:10.232Z,25.80
2022-12-03T17:42:36.883Z,29.05
2022-12-03T17:45:04.154Z,27.48
2022-12-03T17:47:30.646Z,28.57
2022-12-03T17:49:57.520Z,29.48
2022-12-03T17:52:24.386Z,26.67
2022-12-03T17:57:37.386Z,27.05
2022-12-03T18:00:04.787Z,27.80
2022-12-03T18:02:31.276Z,28.10
2022-12-03T18:04:58.657Z,25.60
2022-12-03T18:07:25.384Z,27.83
2022-12-03T18:09:52.190Z,25.30
2022-12-03T18:12:19.062Z,30.00
2022-12-03T18:14:45.603Z,29.48
2022-12-03T18:17:12.119Z,27.75
2022-12-03T18:19:38.650Z,27.60
2022-12-03T18:22:08.456Z,28.52
2022-12-03T18:24:35.086Z,25.55
2022-12-03T18:27:01.556Z,25.20
2022-12-03T18:29:28.041Z,30.33
2022-12-03T18:31:54.570Z,29.55
2022-12-03T18:34:21.377Z,31.45
2022-12-03T18:36:49.050Z,24.60
2022-12-03T18:39:25.459Z,27.70
2022-12-03T18:41:53.482Z,30.83
2022-12-03T18:44:20.465Z,28.52
2022-12-03T18:46:54.929Z,21.58
2022-12-03T18:49:22.147Z,27.92
2022-12-03T18:51:49.384Z,29.88
2022-12-03T18:54:17.884Z,27.70
2022-12-03T18:56:44.429Z,29.83
2022-12-03T18:59:12.236Z,32.88
2022-12-03T19:01:38.965Z,25.30
2022-12-03T19:04:05.601Z,29.65
2022-12-03T19:06:32.171Z,24.33
2022-12-03T19:08:58.726Z,25.27
2022-12-03T19:11:25.227Z,23.52
2022-12-03T19:13:52.079Z,23.52
2022-12-03T19:16:19.158Z,24.95
2022-12-03T19:18:45.915Z,24.17
2022-12-03T19:21:14.959Z,24.00
2022-12-03T19:23:47.266Z,18.85
2022-12-03T19:26:25.637Z,17.53
2022-12-03T19:28:53.656Z,22.30
2022-12-03T19:31:21.438Z,14.20
2022-12-03T19:33:48.409Z,15.20
2022-12-03T19:36:24.392Z,25.65
2022-12-03T19:38:56.595Z,19.50
2022-12-03T19:41:30.466Z,18.02
2022-12-03T19:43:58.108Z,9.83
2022-12-03T19:46:28.718Z,10.98
2022-12-03T19:48:55.316Z,18.88
2022-12-03T19:51:36.984Z,16.40
2022-12-03T19:54:09.952Z,20.42
2022-12-03T19:56:36.516Z,17.10
2022-12-03T19:59:03.513Z,19.17
2022-12-03T20:01:32.573Z,15.52
2022-12-03T20:04:01.666Z,15.25
2022-12-03T20:06:33.588Z,19.08
2022-12-03T20:09:11.900Z,15.73
2022-12-03T20:11:40.010Z,19.00
2022-12-03T20:14:10.596Z,20.80
2022-12-03T20:16:37.182Z,8.53
2022-12-03T20:19:06.890Z,17.60
2022-12-03T20:21:35.512Z,16.45
2022-12-03T20:24:08.127Z,18.83
2022-12-03T20:26:34.851Z,15.77
2022-12-03T20:29:01.729Z,11.05
2022-12-03T20:31:31.302Z,13.00
2022-12-03T20:34:00.642Z,10.27
2022-12-03T20:36:30.026Z,13.82
2022-12-03T20:38:59.236Z,17.27
2022-12-03T20:41:25.865Z,21.63
2022-12-03T20:43:54.404Z,11.27
2022-12-03T20:46:29.478Z,18.08
2022-12-03T20:48:57.134Z,23.85
2022-12-03T20:51:27.397Z,22.17
2022-12-03T20:53:54.149Z,10.23
2022-12-03T20:56:24.933Z,19.42
2022-12-03T20:58:53.111Z,21.97
2022-12-03T21:01:23.746Z,18.10
2022-12-03T21:03:52.262Z,14.50
2022-12-03T21:06:20.173Z,18.30
2022-12-03T21:08:47.022Z,20.48
2022-12-03T21:11:16.282Z,18.20
2022-12-03T21:13:43.927Z,20.30
2022-12-03T21:16:16.413Z,17.45
2022-12-03T21:18:43.513Z,20.83
2022-12-03T21:21:15.612Z,20.80
2022-12-03T21:23:43.468Z,17.97
2022-12-03T21:26:18.302Z,20.23
2022-12-03T21:28:46.710Z,16.02
2022-12-03T21:31:15.498Z,13.73
2022-12-03T21:33:42.352Z,18.98
2022-12-03T21:36:09.710Z,22.60
2022-12-03T21:38:37.555Z,20.15
2022-12-03T21:41:05.248Z,23.15
2022-12-03T21:43:32.445Z,20.55
2022-12-03T21:45:59.160Z,21.85
2022-12-03T21:48:26.691Z,17.37
2022-12-03T21:51:00.166Z,20.27
2022-12-03T21:53:28.113Z,18.60
2022-12-03T21:55:54.700Z,20.90
2022-12-03T21:58:21.330Z,19.50
2022-12-03T22:00:47.883Z,16.50
2022-12-03T22:03:14.465Z,26.27
2022-12-03T22:05:41.024Z,14.63
2022-12-03T22:08:08.068Z,20.88
2022-12-03T22:10:35.752Z,19.35
2022-12-03T22:13:02.704Z,21.93
2022-12-03T22:15:29.229Z,13.07
2022-12-03T22:17:55.852Z,16.02
2022-12-03T22:20:23.183Z,27.23
2022-12-03T22:22:49.756Z,18.35
2022-12-03T22:25:16.313Z,23.55
2022-12-03T22:27:42.956Z,15.07
2022-12-03T22:30:09.719Z,16.52
2022-12-03T22:32:36.283Z,20.48
2022-12-03T22:35:03.196Z,22.63
2022-12-03T22:37:29.946Z,20.73
2022-12-03T22:39:57.227Z,19.60
2022-12-03T22:42:24.142Z,20.13
2022-12-03T22:44:50.673Z,22.90
2022-12-03T22:47:17.233Z,16.25
2022-12-03T22:49:43.806Z,12.93
2022-12-03T22:52:10.355Z,14.70
2022-12-03T22:54:36.966Z,13.45
2022-12-03T22:57:03.633Z,22.00
2022-12-03T22:59:30.496Z,14.68
2022-12-03T23:01:56.983Z,20.77
2022-12-03T23:04:23.560Z,15.48
2022-12-03T23:06:50.230Z,19.83
2022-12-03T23:09:16.826Z,20.67
2022-12-03T23:11:48.545Z,16.70
2022-12-03T23:14:15.127Z,17.02
2022-12-03T23:16:41.815Z,22.75
2022-12-03T23:19:08.592Z,12.70
2022-12-03T23:21:35.516Z,16.52
2022-12-03T23:24:04.403Z,17.02
2022-12-03T23:26:34.544Z,15.83
2022-12-03T23:29:01.046Z,17.90
2022-12-03T23:31:30.060Z,19.45
2022-12-03T23:33:58.228Z,16.27
2022-12-03T23:36:30.407Z,18.48
2022-12-03T23:38:57.242Z,21.50
2022-12-03T23:41:24.449Z,17.02
2022-12-03T23:43:51.526Z,16.27
2022-12-03T23:46:21.442Z,17.75
2022-12-03T23:48:54.856Z,21.58
2022-12-03T23:51:24.268Z,20.63
2022-12-03T23:53:53.053Z,15.35
2022-12-03T23:56:26.794Z,19.60
2022-12-03T23:58:53.356Z,19.33
